Alliance, OH

6:10 AM EDT on September 21, 2014 (GMT -0400)
Youngstown-Warren Regional | Change Station
CLOSE
Current Station
Airport
Location: Youngstown,
Elevation: 1184 ft
Nearby Weather Stations

Elev 1184 ft 41.25 °N, 80.67 °W | Updated 19 minutes ago

Mostly Cloudy
Mostly Cloudy
67 °F
Feels Like 67 °F
N
12
Wind Variable Wind from South

Today
High -- | Low -- °F
--% Chance of Precip.
Yesterday
High -- | Low -- °F
Precip. -- in
7:11 AM 7:23 PM
Waning Crescent, 7% visible
Pressure 29.73 in
Visibility 10.0 miles
Clouds Scattered Clouds 2800 ft
Scattered Clouds 4200 ft
Mostly Cloudy 12000 ft
Dew Point 62 °F
Humidity 84%
Rainfall 0.00 in
Snow Depth Not available.
UV 0 out of 12
Pollen 4.80 out of 12
Air Quality Not available.
Flu Activity Not available.
METAR KYNG 210951Z 19010KT 10SM SCT028 SCT042 BKN120 19/17 A2975 RMK AO2 RAB10E19 SLP067 P0000 T01940167 $

More Conditions Fewer Conditions

Pressure 29.73 in
Visibility 10.0 miles
Clouds Scattered Clouds 2800 ft
Scattered Clouds 4200 ft
Mostly Cloudy 12000 ft
Dew Point 62 °F
Humidity 84%
Rainfall 0.00 in
Snow Depth Not available.
UV 0 out of 12
Pollen 4.80 out of 12
Air Quality Not available.
Flu Activity Not available.
METAR KYNG 210951Z 19010KT 10SM SCT028 SCT042 BKN120 19/17 A2975 RMK AO2 RAB10E19 SLP067 P0000 T01940167 $

More Conditions Fewer Conditions

10-Day Weather Forecast

Almanac

Astronomy

Sep. 21, 2014 Rise Set
Actual Time 7:11 AM EDT 7:23 PM EDT
Civil Twilight 6:43 AM EDT 7:50 PM EDT
Nautical Twilight 6:11 AM EDT 8:22 PM EDT
Astronomical Twilight 5:38 AM EDT 8:55 PM EDT
Moon 4:42 AM EDT 5:59 PM EDT
Length of Visible Light 13h 07m
Length of Day
12h 12m
Tomorrow will be 2m 42s shorter.
Waning Crescent, 7% of the Moon is Illuminated
Today
Waning Crescent
Sep 24
New
Oct 1
First Quarter
Oct 8
Full
Oct 15
Last Quarter

Today's Extremes

State Highs State Lows

Community

WunderPhotos

Upload Photos

1,755,107 photos uploaded!

Nearby

Snow Depth

Station Depth Elevation
No new snow has been reported.

Earthquake Activity

City Distance Mag. Time & Date
No recent earthquake activity has been reported nearby.
Minimum magnitude displayed is 2.5.

Coastal Water Temperatures

Place Temperature
No Stations Reporting

Nearby Weather Stations